createdAt,value
2022-09-20T00:01:46.853Z,10.22
2022-09-20T00:04:38.533Z,10.19
2022-09-20T00:07:25.838Z,10.18
2022-09-20T00:10:14.421Z,10.17
2022-09-20T00:13:01.682Z,10.18
2022-09-20T00:15:48.829Z,10.19
2022-09-20T00:18:36.872Z,10.19
2022-09-20T00:21:27.264Z,10.22
2022-09-20T00:24:14.153Z,10.25
2022-09-20T00:27:01.434Z,10.24
2022-09-20T00:29:54.244Z,10.21
2022-09-20T00:32:41.850Z,10.20
2022-09-20T00:35:30.100Z,10.22
2022-09-20T00:38:17.470Z,10.27
2022-09-20T00:41:04.169Z,10.28
2022-09-20T00:43:52.217Z,10.28
2022-09-20T00:46:44.640Z,10.30
2022-09-20T00:49:34.271Z,10.31
2022-09-20T00:52:21.888Z,10.32
2022-09-20T00:55:09.464Z,10.33
2022-09-20T00:57:56.464Z,10.33
2022-09-20T01:08:57.999Z,10.26
2022-09-20T01:12:28.951Z,10.24
2022-09-20T01:16:00.035Z,10.21
2022-09-20T01:19:30.948Z,10.19
2022-09-20T01:23:27.264Z,10.17
2022-09-20T01:27:12.995Z,10.17
2022-09-20T01:30:49.980Z,10.15
2022-09-20T01:34:21.952Z,10.14
2022-09-20T01:38:11.037Z,10.15
2022-09-20T01:41:50.040Z,10.16
2022-09-20T01:45:33.140Z,10.15
2022-09-20T01:49:03.924Z,10.10
2022-09-20T01:52:35.021Z,10.08
2022-09-20T01:56:08.923Z,10.11
2022-09-20T01:59:58.022Z,10.10
2022-09-20T02:03:56.933Z,10.11
2022-09-20T02:07:31.042Z,10.10
2022-09-20T02:11:17.095Z,10.07
2022-09-20T02:15:11.066Z,10.08
2022-09-20T02:18:41.042Z,10.08
2022-09-20T02:22:20.874Z,10.09
2022-09-20T02:25:54.079Z,10.09
2022-09-20T02:29:27.895Z,10.08
2022-09-20T02:32:59.015Z,10.10
2022-09-20T02:36:29.893Z,9.99
2022-09-20T02:40:07.085Z,9.91
2022-09-20T02:43:48.891Z,9.86
2022-09-20T02:47:20.029Z,9.88
2022-09-20T02:50:59.894Z,9.91
2022-09-20T02:54:37.121Z,9.89
2022-09-20T02:58:20.866Z,9.88
2022-09-20T03:01:55.131Z,9.89
2022-09-20T03:05:29.901Z,9.87
2022-09-20T03:09:07.032Z,9.87
2022-09-20T03:12:44.891Z,9.89
2022-09-20T03:16:35.152Z,9.88
2022-09-20T03:20:05.891Z,9.88
2022-09-20T03:23:55.439Z,9.90
2022-09-20T03:27:39.837Z,9.92
2022-09-20T03:31:09.979Z,9.94
2022-09-20T03:34:43.865Z,9.96
2022-09-20T03:38:13.058Z,9.91
2022-09-20T03:41:49.865Z,9.89
2022-09-20T03:45:45.086Z,9.85
2022-09-20T03:49:27.890Z,9.88
2022-09-20T03:53:07.970Z,9.91
2022-09-20T03:56:50.862Z,9.92
2022-09-20T04:00:25.008Z,9.88
2022-09-20T04:04:01.884Z,9.87
2022-09-20T04:07:42.003Z,9.85
2022-09-20T04:11:18.858Z,9.83
2022-09-20T04:14:53.017Z,9.85
2022-09-20T04:18:26.862Z,9.88
2022-09-20T04:22:10.033Z,9.88
2022-09-20T04:25:58.831Z,9.86
2022-09-20T04:29:44.982Z,9.89
2022-09-20T04:33:24.871Z,9.82
2022-09-20T04:36:53.034Z,9.83
2022-09-20T04:40:29.934Z,9.84
2022-09-20T04:44:25.975Z,9.86
2022-09-20T04:48:21.861Z,9.89
2022-09-20T04:51:59.988Z,9.92
2022-09-20T04:55:39.849Z,9.92
2022-09-20T04:59:09.979Z,9.89
2022-09-20T05:02:39.899Z,9.90
2022-09-20T05:06:11.968Z,9.89
2022-09-20T05:09:45.843Z,9.91
2022-09-20T05:13:44.070Z,9.98
2022-09-20T05:17:14.851Z,10.02
2022-09-20T05:21:12.013Z,10.04
2022-09-20T05:24:51.844Z,10.07
2022-09-20T05:28:27.106Z,10.05
2022-09-20T05:32:12.929Z,10.04
2022-09-20T05:35:48.975Z,10.03
2022-09-20T05:39:25.884Z,10.06
2022-09-20T05:43:11.971Z,10.11
2022-09-20T05:46:48.853Z,10.13
2022-09-20T05:50:35.026Z,10.13
2022-09-20T05:54:17.816Z,10.16
2022-09-20T05:57:47.950Z,10.23
2022-09-20T06:01:17.899Z,10.24
2022-09-20T06:04:54.833Z,10.23
2022-09-20T06:08:37.841Z,10.25
2022-09-20T06:12:13.013Z,10.25
2022-09-20T06:15:52.832Z,10.25
2022-09-20T06:19:48.018Z,10.28
2022-09-20T06:23:15.858Z,10.34
2022-09-20T06:26:50.979Z,10.38
2022-09-20T06:30:23.835Z,10.45
2022-09-20T06:33:58.174Z,10.46
2022-09-20T06:37:33.588Z,10.49
2022-09-20T06:41:14.900Z,10.52
2022-09-20T06:44:47.877Z,10.55
2022-09-20T06:48:19.061Z,10.62
2022-09-20T06:51:52.867Z,10.70
2022-09-20T06:55:28.893Z,10.77
2022-09-20T06:59:04.998Z,10.81
2022-09-20T07:02:36.009Z,10.86
2022-09-20T07:06:05.851Z,10.85
2022-09-20T07:09:36.936Z,10.85
2022-09-20T07:13:05.870Z,10.81
2022-09-20T07:16:37.091Z,10.81
2022-09-20T07:20:06.853Z,10.87
2022-09-20T07:23:24.738Z,10.95
2022-09-20T07:26:53.852Z,11.07
2022-09-20T07:30:25.204Z,11.22
2022-09-20T07:33:55.833Z,11.35
2022-09-20T07:37:35.018Z,11.34
2022-09-20T07:41:04.905Z,11.37
2022-09-20T07:44:36.973Z,11.34
2022-09-20T07:48:11.816Z,11.36
2022-09-20T07:51:42.954Z,11.34
2022-09-20T07:55:13.822Z,11.40
2022-09-20T07:58:52.127Z,11.50
2022-09-20T08:02:21.986Z,11.52
2022-09-20T08:05:53.039Z,11.49
2022-09-20T08:09:24.853Z,11.46
2022-09-20T08:16:47.280Z,11.42
2022-09-20T08:20:17.932Z,11.38
2022-09-20T08:23:47.842Z,11.45
2022-09-20T08:27:22.905Z,11.49
2022-09-20T08:30:49.840Z,11.52
2022-09-20T08:34:20.922Z,11.54
2022-09-20T08:37:52.009Z,11.65
2022-09-20T08:41:28.939Z,11.66
2022-09-20T08:45:00.946Z,11.68
2022-09-20T08:48:32.917Z,11.65
2022-09-20T08:52:04.359Z,11.59
2022-09-20T08:55:37.232Z,11.57
2022-09-20T08:59:08.866Z,11.54
2022-09-20T09:02:42.880Z,11.51
2022-09-20T09:06:17.778Z,11.57
2022-09-20T09:09:49.998Z,11.65
2022-09-20T09:13:20.830Z,11.68
2022-09-20T09:16:51.967Z,11.72
2022-09-20T09:20:29.832Z,11.67
2022-09-20T09:23:58.965Z,11.65
2022-09-20T09:27:45.856Z,11.63
2022-09-20T09:31:18.945Z,11.71
2022-09-20T09:34:55.834Z,11.76
2022-09-20T09:38:29.959Z,11.79
2022-09-20T09:42:09.826Z,11.90
2022-09-20T09:45:43.971Z,11.90
2022-09-20T09:49:15.061Z,11.83
2022-09-20T09:52:33.915Z,11.74
2022-09-20T09:56:04.805Z,11.70
2022-09-20T09:59:34.508Z,11.69
2022-09-20T10:03:18.763Z,11.81
2022-09-20T10:06:36.284Z,12.09
2022-09-20T10:10:16.167Z,12.32
2022-09-20T10:13:49.209Z,12.49
2022-09-20T10:17:04.176Z,12.95
2022-09-20T10:20:38.194Z,13.46
2022-09-20T10:27:34.930Z,15.10
2022-09-20T10:31:26.192Z,15.50
2022-09-20T10:34:33.611Z,15.85
2022-09-20T10:38:07.817Z,15.70
2022-09-20T10:41:46.725Z,15.47
2022-09-20T10:46:03.785Z,15.64
2022-09-20T10:49:55.911Z,15.54
2022-09-20T10:53:35.890Z,15.69
2022-09-20T10:57:01.169Z,15.78
2022-09-20T11:00:02.441Z,15.45
2022-09-20T11:04:12.927Z,15.04
2022-09-20T11:07:42.777Z,14.67
2022-09-20T11:11:18.870Z,14.38
2022-09-20T11:14:55.773Z,14.18
2022-09-20T11:18:29.914Z,13.93
2022-09-20T11:22:04.773Z,13.80
2022-09-20T11:25:45.030Z,14.17
2022-09-20T11:29:15.797Z,14.81
2022-09-20T11:33:01.950Z,15.62
2022-09-20T11:36:32.732Z,16.12
2022-09-20T11:40:18.028Z,16.51
2022-09-20T11:43:29.781Z,17.04
2022-09-20T11:46:52.918Z,17.32
2022-09-20T11:50:39.544Z,17.62
2022-09-20T11:53:34.491Z,18.17
2022-09-20T11:57:11.911Z,18.76
2022-09-20T12:00:42.849Z,19.08
2022-09-20T12:08:04.036Z,19.48
2022-09-20T12:11:29.921Z,18.99
2022-09-20T12:14:44.751Z,18.42
2022-09-20T12:18:25.776Z,17.94
2022-09-20T12:21:30.781Z,17.46
2022-09-20T12:24:46.813Z,17.14
2022-09-20T12:28:17.862Z,16.82
2022-09-20T12:31:47.876Z,16.59
2022-09-20T12:35:21.875Z,16.44
2022-09-20T12:38:58.782Z,16.17
2022-09-20T12:42:42.889Z,16.06
2022-09-20T12:46:13.827Z,16.59
2022-09-20T12:50:13.683Z,16.93
2022-09-20T12:53:31.545Z,17.05
2022-09-20T12:56:50.951Z,16.94
2022-09-20T13:00:13.730Z,17.38
2022-09-20T13:04:05.359Z,17.55
2022-09-20T13:07:34.848Z,17.93
2022-09-20T13:10:34.375Z,17.90
2022-09-20T13:14:19.714Z,17.69
2022-09-20T13:17:32.938Z,17.53
2022-09-20T13:20:31.682Z,17.75
2022-09-20T13:23:29.739Z,18.23
2022-09-20T13:26:56.824Z,18.73
2022-09-20T13:30:17.774Z,19.26
2022-09-20T13:33:18.202Z,19.39
2022-09-20T13:36:10.619Z,19.18
2022-09-20T13:39:17.166Z,19.06
2022-09-20T13:42:36.763Z,19.25
2022-09-20T13:45:26.785Z,19.34
2022-09-20T13:48:16.997Z,18.98
2022-09-20T13:51:04.608Z,18.44
2022-09-20T13:53:52.225Z,18.16
2022-09-20T13:56:43.772Z,18.08
2022-09-20T13:59:45.812Z,18.31
2022-09-20T14:02:34.755Z,18.63
2022-09-20T14:05:26.904Z,18.88
2022-09-20T14:08:24.593Z,19.05
2022-09-20T14:11:50.845Z,19.39
2022-09-20T14:15:17.838Z,19.83
2022-09-20T14:18:59.912Z,20.07
2022-09-20T14:22:10.048Z,20.36
2022-09-20T14:25:29.945Z,20.46
2022-09-20T14:29:10.746Z,20.54
2022-09-20T14:32:30.935Z,20.49
2022-09-20T14:36:09.384Z,19.97
2022-09-20T14:39:45.374Z,19.40
2022-09-20T14:43:00.212Z,18.93
2022-09-20T14:46:22.902Z,18.55
2022-09-20T14:49:31.310Z,18.34
2022-09-20T14:52:46.643Z,18.06
2022-09-20T14:56:15.829Z,17.61
2022-09-20T14:59:36.957Z,17.08
2022-09-20T15:03:03.693Z,16.61
2022-09-20T15:06:40.950Z,16.18
2022-09-20T15:09:44.827Z,15.83
2022-09-20T15:13:15.327Z,15.63
2022-09-20T15:16:37.020Z,15.43
2022-09-20T15:19:48.258Z,15.16
2022-09-20T15:22:58.184Z,14.94
2022-09-20T15:25:54.356Z,14.83
2022-09-20T15:29:06.657Z,14.90
2022-09-20T15:32:00.799Z,14.99
2022-09-20T15:35:29.797Z,14.99
2022-09-20T15:38:40.297Z,14.87
2022-09-20T15:41:45.226Z,14.78
2022-09-20T15:44:40.109Z,14.63
2022-09-20T15:47:33.108Z,14.41
2022-09-20T15:50:31.570Z,14.24
2022-09-20T15:53:44.836Z,14.09
2022-09-20T15:56:34.187Z,13.95
2022-09-20T15:59:27.886Z,13.88
2022-09-20T16:02:41.620Z,13.83
2022-09-20T16:06:03.910Z,13.79
2022-09-20T16:09:04.173Z,13.75
2022-09-20T16:12:02.007Z,13.71
2022-09-20T16:14:49.818Z,13.62
2022-09-20T16:17:55.931Z,13.51
2022-09-20T16:20:45.597Z,13.44
2022-09-20T16:23:33.224Z,13.36
2022-09-20T16:26:21.880Z,13.30
2022-09-20T16:29:09.553Z,13.20
2022-09-20T16:31:58.783Z,13.12
2022-09-20T16:34:46.270Z,13.02
2022-09-20T16:37:33.493Z,12.94
2022-09-20T16:40:25.486Z,12.83
2022-09-20T16:43:13.009Z,12.72
2022-09-20T16:46:01.387Z,12.62
2022-09-20T16:48:53.905Z,12.51
2022-09-20T16:51:44.571Z,12.41
2022-09-20T16:54:34.002Z,12.29
2022-09-20T16:57:22.730Z,12.18
2022-09-20T17:00:12.303Z,12.07
2022-09-20T17:02:59.319Z,11.98
2022-09-20T17:05:48.418Z,11.87
2022-09-20T17:08:40.364Z,11.78
2022-09-20T17:11:57.818Z,-72.11
2022-09-20T17:15:09.332Z,-128.00
2022-09-20T17:18:24.718Z,-128.00
2022-09-20T17:21:55.850Z,-128.00
2022-09-20T17:25:26.742Z,-128.00
2022-09-20T17:28:57.813Z,-128.00
2022-09-20T17:32:28.705Z,-128.00
2022-09-20T17:35:45.832Z,-128.00
2022-09-20T17:39:28.731Z,-128.00
2022-09-20T17:43:09.007Z,-128.00
2022-09-20T17:46:45.842Z,-128.00
2022-09-20T17:50:16.901Z,-128.00
2022-09-20T17:53:47.712Z,-128.00
2022-09-20T17:57:18.810Z,-128.00
2022-09-20T18:00:49.762Z,-128.00
2022-09-20T18:04:20.940Z,-128.00
2022-09-20T18:07:54.739Z,-128.00
2022-09-20T18:11:28.866Z,-128.00
2022-09-20T18:14:59.852Z,-128.00
2022-09-20T18:18:30.863Z,-128.00
2022-09-20T18:22:01.777Z,-128.00
2022-09-20T18:25:32.724Z,-128.00
2022-09-20T18:29:03.716Z,-128.00
2022-09-20T18:32:34.888Z,-128.00
2022-09-20T18:36:07.915Z,-128.00
2022-09-20T18:39:38.713Z,-128.00
2022-09-20T18:43:09.766Z,-128.00
2022-09-20T18:46:40.870Z,-128.00
2022-09-20T18:50:11.759Z,-128.00
2022-09-20T18:53:42.859Z,-128.00
2022-09-20T18:57:13.808Z,-128.00
2022-09-20T19:00:44.844Z,-128.00
2022-09-20T19:04:38.820Z,-128.00
2022-09-20T19:08:18.688Z,-128.00
2022-09-20T19:11:55.881Z,-128.00
2022-09-20T19:15:35.709Z,-128.00
2022-09-20T19:19:25.908Z,-128.00
2022-09-20T19:22:56.698Z,-128.00
2022-09-20T19:26:36.804Z,-128.00
2022-09-20T19:30:07.709Z,-128.00
2022-09-20T19:33:42.832Z,-128.00
2022-09-20T19:37:19.682Z,-128.00
2022-09-20T19:40:49.884Z,-128.00
2022-09-20T19:44:39.661Z,-128.00
2022-09-20T19:48:16.954Z,-128.00
2022-09-20T19:51:49.125Z,-128.00
2022-09-20T19:55:20.906Z,-128.00
2022-09-20T19:58:51.711Z,-128.00
2022-09-20T20:02:22.889Z,-128.00
2022-09-20T20:05:52.710Z,-128.00
2022-09-20T20:09:21.792Z,-128.00
2022-09-20T20:12:58.702Z,-128.00
2022-09-20T20:16:32.777Z,-128.00
2022-09-20T20:20:06.832Z,-128.00
2022-09-20T20:23:47.832Z,-128.00
2022-09-20T20:27:18.710Z,-128.00
2022-09-20T20:30:50.855Z,-128.00
2022-09-20T20:34:22.683Z,-128.00
2022-09-20T20:38:04.811Z,-128.00
2022-09-20T20:41:36.677Z,-128.00
2022-09-20T20:45:07.803Z,-128.00
2022-09-20T20:48:37.662Z,-128.00
2022-09-20T20:52:07.849Z,-128.00
2022-09-20T20:55:38.659Z,-128.00
2022-09-20T20:59:09.925Z,-128.00
2022-09-20T21:02:40.738Z,-128.00
2022-09-20T21:06:08.767Z,-128.00
2022-09-20T21:09:42.713Z,-128.00
2022-09-20T21:13:13.787Z,-128.00
2022-09-20T21:16:41.730Z,-128.00
2022-09-20T21:20:14.771Z,-128.00
2022-09-20T21:23:45.792Z,-128.00
2022-09-20T21:27:16.798Z,-128.00
2022-09-20T21:30:47.759Z,-128.00
2022-09-20T21:34:18.780Z,-128.00
2022-09-20T21:37:49.697Z,-128.00
2022-09-20T21:41:21.139Z,-128.00
2022-09-20T21:44:51.679Z,-128.00
2022-09-20T21:48:22.749Z,-128.00
2022-09-20T21:51:58.667Z,-128.00
2022-09-20T21:55:28.909Z,-128.00
2022-09-20T21:58:56.691Z,-128.00
2022-09-20T22:02:28.077Z,-128.00
2022-09-20T22:05:58.680Z,-128.00
2022-09-20T22:09:29.776Z,-128.00
2022-09-20T22:13:03.664Z,-128.00
2022-09-20T22:16:33.756Z,-128.00
2022-09-20T22:20:03.668Z,-128.00
2022-09-20T22:23:32.833Z,-128.00
2022-09-20T22:27:09.740Z,-128.00
2022-09-20T22:30:45.805Z,-128.00
2022-09-20T22:34:21.662Z,-128.00
2022-09-20T22:37:47.725Z,-128.00
2022-09-20T22:41:21.683Z,-128.00
2022-09-20T22:44:55.761Z,-128.00
2022-09-20T22:48:28.674Z,-128.00
2022-09-20T22:52:02.737Z,-128.00
2022-09-20T22:55:35.740Z,-128.00
2022-09-20T22:59:05.816Z,-128.00
2022-09-20T23:02:37.677Z,-128.00
2022-09-20T23:06:08.734Z,-128.00
2022-09-20T23:09:39.680Z,-128.00
2022-09-20T23:13:09.728Z,-128.00
2022-09-20T23:16:41.732Z,-128.00
2022-09-20T23:20:17.779Z,-128.00
2022-09-20T23:23:48.649Z,-128.00
2022-09-20T23:27:22.809Z,-128.00
2022-09-20T23:30:54.781Z,-128.00
2022-09-20T23:34:20.798Z,-128.00
2022-09-20T23:37:51.646Z,-128.00
2022-09-20T23:41:22.802Z,-128.00
2022-09-20T23:44:55.632Z,-128.00
2022-09-20T23:48:24.751Z,-128.00
2022-09-20T23:51:52.633Z,-128.00
2022-09-20T23:55:23.732Z,-128.00
2022-09-20T23:58:54.753Z,-128.00
